Time;durP1;ratioP1;P1;durP2;ratioP2;P2;SDS_P1;SDS_P2;PMS_P1;PMS_P2;Temp;Humidity;BMP_temperature;BMP_pressure;BME280_temperature;BME280_humidity;BME280_pressure;Samples;Min_cycle;Max_cycle;Signal;HPM_P1;HPM_P2
2023/12/30 00:00:59;;;;;;;22.67;2.72;;;;;;;9.93;100.00;101086.63;5267887;28;20489;-76
2023/12/30 00:03:29;;;;;;;19.08;3.00;;;;;;;9.96;100.00;101092.53;5269680;28;20049;-76
2023/12/30 00:06:00;;;;;;;37.35;4.35;;;;;;;10.00;100.00;101096.59;5267704;28;20036;-76
2023/12/30 00:08:30;;;;;;;21.88;2.85;;;;;;;10.01;100.00;101090.22;5268304;28;20039;-76
2023/12/30 00:11:01;;;;;;;18.65;2.83;;;;;;;10.01;100.00;101094.75;5270021;28;20036;-76
2023/12/30 00:13:31;;;;;;;18.60;2.83;;;;;;;10.00;100.00;101096.59;5266206;28;20027;-76
2023/12/30 00:16:02;;;;;;;17.98;3.17;;;;;;;9.97;100.00;101098.72;5268487;28;20039;-76
2023/12/30 00:18:32;;;;;;;23.05;2.60;;;;;;;10.03;100.00;101103.44;5267069;28;20020;-76
2023/12/30 00:21:03;;;;;;;18.98;3.35;;;;;;;10.03;100.00;101109.66;5272284;28;20024;-75
2023/12/30 00:23:35;;;;;;;20.58;2.78;;;;;;;10.01;100.00;101103.63;5269752;28;20822;-76
2023/12/30 00:26:05;;;;;;;13.60;2.90;;;;;;;10.04;100.00;101097.97;5270134;28;20401;-76
2023/12/30 00:28:36;;;;;;;16.92;2.50;;;;;;;9.95;100.00;101095.38;5268832;27;20031;-75
2023/12/30 00:31:06;;;;;;;20.70;2.60;;;;;;;9.88;100.00;101105.00;5269820;28;20059;-76
2023/12/30 00:33:37;;;;;;;20.25;3.08;;;;;;;9.78;100.00;101089.84;5267433;28;20024;-75
2023/12/30 00:36:07;;;;;;;21.38;2.92;;;;;;;9.86;100.00;101097.97;5269279;28;20032;-75
2023/12/30 00:38:38;;;;;;;9.77;2.42;;;;;;;9.83;100.00;101097.44;5272535;28;20028;-76
2023/12/30 00:41:08;;;;;;;19.90;2.10;;;;;;;9.83;100.00;101108.16;5269118;28;20031;-76
2023/12/30 00:43:41;;;;;;;17.02;2.35;;;;;;;9.75;100.00;101103.59;5268949;28;20030;-75
2023/12/30 00:46:11;;;;;;;20.50;3.90;;;;;;;9.84;100.00;101109.88;5270606;28;20536;-76
2023/12/30 00:48:41;;;;;;;18.27;3.38;;;;;;;9.82;100.00;101101.13;5264575;28;20073;-76
2023/12/30 00:51:12;;;;;;;27.08;3.15;;;;;;;9.83;100.00;101110.84;5271157;28;20597;-75
2023/12/30 00:53:42;;;;;;;20.17;3.03;;;;;;;9.89;100.00;101110.25;5269403;28;20035;-76
2023/12/30 00:56:13;;;;;;;20.13;2.58;;;;;;;9.80;100.00;101106.66;5268627;28;20024;-76
2023/12/30 00:58:43;;;;;;;23.50;3.45;;;;;;;9.82;100.00;101101.97;5267477;28;20064;-76
2023/12/30 01:01:14;;;;;;;20.15;2.88;;;;;;;9.76;100.00;101102.59;5271588;28;20027;-76
2023/12/30 01:03:45;;;;;;;21.45;2.95;;;;;;;9.79;100.00;101107.66;5271640;28;20024;-76
2023/12/30 01:06:15;;;;;;;25.75;3.05;;;;;;;9.76;100.00;101113.31;5271146;28;20024;-76
2023/12/30 01:08:46;;;;;;;14.68;2.60;;;;;;;9.69;100.00;101108.69;5266710;28;20051;-76
2023/12/30 01:11:16;;;;;;;18.05;2.63;;;;;;;9.72;100.00;101111.91;5271089;28;20080;-76
2023/12/30 01:13:47;;;;;;;19.40;2.38;;;;;;;9.71;100.00;101120.13;5269125;28;20031;-76
2023/12/30 01:16:17;;;;;;;17.45;2.60;;;;;;;9.75;100.00;101116.97;5267643;28;20068;-76
2023/12/30 01:18:48;;;;;;;15.38;2.05;;;;;;;9.76;100.00;101123.19;5266937;28;20051;-76
2023/12/30 01:21:18;;;;;;;15.45;2.50;;;;;;;9.75;100.00;101138.41;5270664;28;20023;-76
2023/12/30 01:23:49;;;;;;;17.50;3.13;;;;;;;9.57;100.00;101146.44;5267535;28;20266;-76
2023/12/30 01:26:19;;;;;;;13.05;2.00;;;;;;;9.59;100.00;101141.78;5269628;28;20027;-76
2023/12/30 01:28:50;;;;;;;15.82;2.45;;;;;;;9.65;100.00;101144.84;5265044;28;20024;-75
2023/12/30 01:31:20;;;;;;;15.07;2.53;;;;;;;9.56;100.00;101144.75;5269217;28;20045;-76
2023/12/30 01:33:51;;;;;;;21.10;2.55;;;;;;;9.54;100.00;101136.06;5268814;28;20669;-75
2023/12/30 01:36:21;;;;;;;32.20;2.60;;;;;;;9.49;100.00;101134.81;5269674;28;20030;-75
2023/12/30 01:38:52;;;;;;;19.38;2.47;;;;;;;9.47;100.00;101156.38;5264881;28;20106;-75
2023/12/30 01:41:22;;;;;;;17.00;2.40;;;;;;;9.51;100.00;101140.84;5270611;28;20031;-76
2023/12/30 01:43:53;;;;;;;19.00;3.63;;;;;;;9.56;100.00;101144.75;5268325;28;20546;-76
2023/12/30 01:46:23;;;;;;;14.82;2.13;;;;;;;9.48;100.00;101157.22;5267872;28;20076;-76
2023/12/30 01:48:54;;;;;;;13.82;2.30;;;;;;;9.55;100.00;101158.31;5264334;28;20035;-75
2023/12/30 01:51:25;;;;;;;20.20;2.97;;;;;;;9.55;100.00;101158.31;5269324;28;20047;-76
2023/12/30 01:53:57;;;;;;;17.17;2.42;;;;;;;9.53;100.00;101171.00;5266217;28;20048;-76
2023/12/30 01:56:28;;;;;;;29.10;2.55;;;;;;;9.50;100.00;101174.00;5269455;28;20023;-76
2023/12/30 01:58:59;;;;;;;18.80;2.13;;;;;;;9.50;100.00;101176.69;5262400;28;20035;-75
2023/12/30 02:01:29;;;;;;;20.63;2.45;;;;;;;9.50;100.00;101188.22;5267721;28;20023;-76
2023/12/30 02:04:00;;;;;;;19.40;2.65;;;;;;;9.48;100.00;101190.19;5268973;28;20020;-76
2023/12/30 02:06:40;;;;;;;23.40;2.40;;;;;;;9.46;100.00;101186.84;5267173;28;20440;-76
2023/12/30 02:09:10;;;;;;;22.20;3.55;;;;;;;9.48;100.00;101192.88;5266008;28;20036;-76
2023/12/30 02:11:42;;;;;;;23.50;2.17;;;;;;;9.40;100.00;101203.50;5268632;28;20063;-76
2023/12/30 02:14:29;;;;;;;15.52;2.85;;;;;;;9.51;100.00;101197.94;5265455;28;20020;-76
2023/12/30 02:17:00;;;;;;;30.88;3.20;;;;;;;9.47;100.00;101207.25;5265731;28;20085;-76
2023/12/30 02:19:32;;;;;;;19.27;2.30;;;;;;;9.54;100.00;101204.84;5266714;28;20015;-75
2023/12/30 02:22:03;;;;;;;33.95;2.97;;;;;;;9.47;100.00;101206.44;5268628;28;20031;-76
2023/12/30 02:24:34;;;;;;;17.17;2.45;;;;;;;9.41;100.00;101194.47;5266332;28;20079;-76
2023/12/30 02:27:04;;;;;;;23.05;2.50;;;;;;;9.38;100.00;101200.13;5265944;28;20028;-76
2023/12/30 02:29:35;;;;;;;17.90;2.65;;;;;;;9.38;100.00;101199.28;5269093;28;20414;-76
2023/12/30 02:32:06;;;;;;;20.20;3.38;;;;;;;9.31;100.00;101204.41;5250284;28;20028;-76
2023/12/30 02:34:36;;;;;;;20.73;2.70;;;;;;;9.26;100.00;101195.97;5261817;28;20019;-76
2023/12/30 02:37:06;;;;;;;26.73;2.78;;;;;;;9.29;100.00;101199.22;5263131;28;20370;-76
2023/12/30 02:39:37;;;;;;;25.27;3.22;;;;;;;9.33;100.00;101203.25;5264068;28;20379;-76
2023/12/30 02:42:07;;;;;;;24.85;3.45;;;;;;;9.25;100.00;101199.66;5270866;28;20028;-76
2023/12/30 02:44:38;;;;;;;22.98;3.25;;;;;;;9.30;100.00;101197.38;5268439;28;20032;-76
2023/12/30 02:47:08;;;;;;;25.75;3.42;;;;;;;9.33;100.00;101197.06;5269673;28;20044;-76
2023/12/30 02:49:52;;;;;;;20.52;3.53;;;;;;;9.35;100.00;101203.13;5268083;28;20031;-76
2023/12/30 02:52:23;;;;;;;30.30;3.78;;;;;;;9.42;100.00;101206.03;5250013;28;20032;-76
2023/12/30 02:54:54;;;;;;;21.30;3.42;;;;;;;9.44;100.00;101209.38;5267639;28;20028;-76
2023/12/30 02:57:25;;;;;;;25.52;3.33;;;;;;;9.48;100.00;101216.97;5266519;28;20062;-76
2023/12/30 03:00:07;;;;;;;19.30;2.75;;;;;;;9.41;100.00;101210.53;5269583;28;20550;-75
2023/12/30 03:02:38;;;;;;;26.27;2.88;;;;;;;9.42;100.00;101211.38;5269170;28;20081;-76
2023/12/30 03:05:09;;;;;;;24.17;3.50;;;;;;;9.45;100.00;101208.41;5265920;28;20028;-76
2023/12/30 03:07:39;;;;;;;26.30;2.92;;;;;;;9.45;100.00;101219.97;5266117;28;20034;-75
2023/12/30 03:10:12;;;;;;;18.83;3.20;;;;;;;9.43;100.00;101215.75;5265375;28;20096;-76
2023/12/30 03:12:43;;;;;;;22.17;2.80;;;;;;;9.44;100.00;101215.63;5265268;28;20512;-76
2023/12/30 03:15:14;;;;;;;19.92;4.13;;;;;;;9.46;100.00;101218.13;5269243;28;20046;-76
2023/12/30 03:17:44;;;;;;;18.02;2.85;;;;;;;9.51;100.00;101214.00;5267281;28;20679;-76
2023/12/30 03:20:17;;;;;;;24.52;3.80;;;;;;;9.51;100.00;101219.38;5267317;28;20495;-76
2023/12/30 03:22:48;;;;;;;19.65;3.17;;;;;;;9.51;100.00;101221.22;5262908;28;20027;-76
2023/12/30 03:25:19;;;;;;;22.95;3.15;;;;;;;9.53;100.00;101225.41;5270130;28;20039;-76
2023/12/30 03:27:49;;;;;;;22.13;3.20;;;;;;;9.56;100.00;101219.75;5271559;28;20074;-76
2023/12/30 03:30:20;;;;;;;25.52;3.00;;;;;;;9.59;100.00;101224.00;5273154;28;20114;-76
2023/12/30 03:32:50;;;;;;;16.63;2.58;;;;;;;9.49;100.00;101221.38;5269848;28;20023;-76
2023/12/30 03:35:21;;;;;;;30.45;4.10;;;;;;;9.59;100.00;101221.31;5273904;28;20027;-76
2023/12/30 03:37:51;;;;;;;25.08;3.35;;;;;;;9.52;100.00;101215.69;5272114;28;20047;-76
2023/12/30 03:40:22;;;;;;;20.90;2.88;;;;;;;9.51;100.00;101211.34;5272631;28;20028;-76
2023/12/30 03:42:52;;;;;;;21.98;3.67;;;;;;;9.58;100.00;101212.41;5271444;28;20035;-76
2023/12/30 03:45:23;;;;;;;17.95;3.08;;;;;;;9.52;100.00;101217.53;5274282;28;20019;-76
2023/12/30 03:47:53;;;;;;;19.77;3.45;;;;;;;9.41;100.00;101223.09;5270852;28;20024;-76
2023/12/30 03:50:24;;;;;;;16.08;2.45;;;;;;;9.42;100.00;101212.22;5271698;28;20023;-76
2023/12/30 03:52:55;;;;;;;23.08;3.05;;;;;;;9.34;100.00;101220.19;5263954;28;20082;-76
2023/12/30 03:55:25;;;;;;;33.15;4.60;;;;;;;9.39;100.00;101225.06;5272382;28;20058;-76
2023/12/30 03:57:56;;;;;;;17.40;3.42;;;;;;;9.31;100.00;101223.16;5266422;28;20553;-75
2023/12/30 04:00:26;;;;;;;19.90;3.25;;;;;;;9.25;100.00;101227.25;5271868;28;20032;-76
2023/12/30 04:02:57;;;;;;;16.35;3.60;;;;;;;9.24;100.00;101233.63;5273314;28;20059;-75
2023/12/30 04:05:27;;;;;;;25.13;2.92;;;;;;;9.13;100.00;101233.78;5270784;28;20032;-76
2023/12/30 04:07:57;;;;;;;11.77;2.25;;;;;;;9.16;100.00;101225.47;5271447;28;20042;-76
2023/12/30 04:10:28;;;;;;;18.05;2.90;;;;;;;9.17;100.00;101239.69;5270849;28;20509;-76
2023/12/30 04:12:58;;;;;;;26.42;3.10;;;;;;;9.18;100.00;101231.50;5272358;28;20169;-76
2023/12/30 04:15:29;;;;;;;19.73;2.80;;;;;;;9.15;100.00;101237.19;5267909;28;20023;-76
2023/12/30 04:18:00;;;;;;;21.27;3.05;;;;;;;9.11;100.00;101234.94;5272311;28;20532;-76
2023/12/30 04:20:30;;;;;;;21.90;3.30;;;;;;;9.12;100.00;101228.59;5270285;28;20042;-76
2023/12/30 04:23:01;;;;;;;29.48;3.65;;;;;;;9.09;100.00;101221.72;5270868;28;20495;-76
2023/12/30 04:25:31;;;;;;;17.77;3.85;;;;;;;9.16;100.00;101228.16;5273303;27;20024;-76
2023/12/30 04:28:02;;;;;;;28.33;2.97;;;;;;;9.10;100.00;101220.72;5268966;28;20076;-76
2023/12/30 04:30:33;;;;;;;31.00;2.45;;;;;;;9.05;100.00;101228.34;5271915;28;20034;-76
2023/12/30 04:33:04;;;;;;;23.02;3.08;;;;;;;9.14;100.00;101223.94;5272479;28;20024;-76
2023/12/30 04:35:35;;;;;;;20.40;2.50;;;;;;;9.02;100.00;101233.97;5270777;28;20035;-76
2023/12/30 04:38:05;;;;;;;25.50;3.83;;;;;;;9.04;100.00;101230.19;5270408;28;20035;-76
2023/12/30 04:40:36;;;;;;;23.52;2.28;;;;;;;9.05;100.00;101231.84;5268008;28;20028;-76
2023/12/30 04:43:06;;;;;;;27.50;2.83;;;;;;;8.99;100.00;101229.78;5272425;28;20076;-76
2023/12/30 04:45:37;;;;;;;18.40;2.20;;;;;;;9.00;100.00;101227.94;5271664;28;20059;-75
2023/12/30 04:48:07;;;;;;;13.77;2.58;;;;;;;9.01;100.00;101225.09;5272027;28;20042;-75
2023/12/30 04:50:38;;;;;;;20.92;3.85;;;;;;;9.00;100.00;101228.78;5269431;28;20032;-76
2023/12/30 04:53:08;;;;;;;19.70;3.38;;;;;;;9.04;100.00;101230.19;5271070;28;20080;-76
2023/12/30 04:55:39;;;;;;;20.70;3.40;;;;;;;9.03;100.00;101232.97;5267602;28;20020;-76
2023/12/30 04:58:09;;;;;;;22.42;3.67;;;;;;;8.96;100.00;101242.59;5263277;28;20090;-76
2023/12/30 05:00:40;;;;;;;20.33;4.45;;;;;;;9.00;100.00;101252.03;5264022;28;20023;-76
2023/12/30 05:03:10;;;;;;;22.90;4.00;;;;;;;8.94;100.00;101244.59;5275429;28;20031;-76
2023/12/30 05:05:41;;;;;;;27.73;4.00;;;;;;;8.95;100.00;101259.66;5267940;28;20058;-76
2023/12/30 05:08:11;;;;;;;16.80;3.67;;;;;;;8.95;100.00;101257.81;5273031;28;20028;-75
2023/12/30 05:10:42;;;;;;;17.02;3.47;;;;;;;8.91;100.00;101260.91;5269001;28;20063;-76
2023/12/30 05:13:12;;;;;;;22.92;3.78;;;;;;;8.93;100.00;101259.78;5269570;28;20032;-76
2023/12/30 05:15:43;;;;;;;19.38;3.15;;;;;;;8.93;100.00;101264.28;5269332;28;20023;-76
2023/12/30 05:18:14;;;;;;;26.00;4.43;;;;;;;8.89;100.00;101263.75;5271523;28;20067;-76
2023/12/30 05:20:44;;;;;;;22.23;5.70;;;;;;;8.91;100.00;101261.75;5268804;28;20103;-76
2023/12/30 05:23:15;;;;;;;32.78;7.35;;;;;;;8.86;100.00;101257.84;5271979;28;20564;-76
2023/12/30 05:25:46;;;;;;;23.67;3.22;;;;;;;8.92;100.00;101268.78;5269247;28;20034;-76
2023/12/30 05:28:16;;;;;;;29.73;3.40;;;;;;;8.92;100.00;101268.78;5274150;28;20027;-76
2023/12/30 05:30:47;;;;;;;24.77;4.00;;;;;;;8.96;100.00;101270.19;5269283;28;20027;-76
2023/12/30 05:33:17;;;;;;;18.98;3.03;;;;;;;8.95;100.00;101265.84;5278873;28;20507;-76
2023/12/30 05:35:48;;;;;;;28.70;18.10;;;;;;;8.88;100.00;101258.53;5269474;28;20088;-76
2023/12/30 05:38:19;;;;;;;18.85;3.35;;;;;;;8.77;100.00;101260.38;5274036;28;20038;-76
2023/12/30 05:40:50;;;;;;;21.77;3.45;;;;;;;8.82;100.00;101250.09;5263952;28;20464;-77
2023/12/30 05:43:20;;;;;;;19.73;3.33;;;;;;;8.82;100.00;101246.56;5272529;28;20028;-77
2023/12/30 05:45:51;;;;;;;18.65;2.95;;;;;;;8.82;100.00;101254.59;5267671;28;20020;-76
2023/12/30 05:48:21;;;;;;;23.35;3.05;;;;;;;8.77;100.00;101249.69;5267220;28;20040;-76
2023/12/30 05:50:52;;;;;;;12.55;2.38;;;;;;;8.75;100.00;101251.66;5275548;28;20050;-76
2023/12/30 05:53:22;;;;;;;23.27;3.75;;;;;;;8.76;100.00;101261.38;5280718;28;20114;-76
2023/12/30 05:55:53;;;;;;;21.88;3.70;;;;;;;8.78;100.00;101259.38;5268616;28;20103;-76
2023/12/30 05:58:23;;;;;;;27.33;4.22;;;;;;;8.76;100.00;101256.03;5273992;28;20085;-76
2023/12/30 06:00:54;;;;;;;21.95;4.10;;;;;;;8.71;100.00;101252.09;5272921;28;20036;-76
2023/12/30 06:03:25;;;;;;;25.73;3.33;;;;;;;8.76;100.00;101266.72;5272164;28;20033;-76
2023/12/30 06:05:55;;;;;;;24.35;2.97;;;;;;;8.69;100.00;101259.44;5267476;28;20055;-77
2023/12/30 06:08:26;;;;;;;33.97;8.15;;;;;;;8.67;100.00;101264.06;5265718;28;20073;-76
2023/12/30 06:10:56;;;;;;;35.03;7.47;;;;;;;8.76;100.00;101266.72;5274851;28;20080;-76
2023/12/30 06:13:27;;;;;;;21.13;3.55;;;;;;;8.74;100.00;101266.03;5270996;28;20024;-77
2023/12/30 06:15:57;;;;;;;22.60;3.22;;;;;;;8.79;100.00;101265.59;5261783;28;20027;-77
2023/12/30 06:18:30;;;;;;;29.80;7.82;;;;;;;8.91;100.00;101275.13;5265176;28;20059;-76
2023/12/30 06:21:03;;;;;;;20.55;4.03;;;;;;;8.86;100.00;101274.72;5265133;27;20480;-77
2023/12/30 06:23:33;;;;;;;21.30;4.57;;;;;;;8.84;100.00;101276.72;5268770;28;20027;-76
2023/12/30 06:26:04;;;;;;;20.70;3.45;;;;;;;8.91;100.00;101275.13;5274693;28;20036;-76
2023/12/30 06:28:35;;;;;;;22.92;7.60;;;;;;;8.89;100.00;101274.47;5267537;28;20522;-76
2023/12/30 06:31:06;;;;;;;27.05;4.15;;;;;;;8.90;100.00;101280.66;5271311;28;20028;-76
2023/12/30 06:33:36;;;;;;;27.27;5.00;;;;;;;8.93;100.00;101289.22;5276702;28;20023;-76
2023/12/30 06:36:07;;;;;;;39.22;3.95;;;;;;;8.92;100.00;101284.84;5272897;28;20023;-76
2023/12/30 06:38:38;;;;;;;26.48;3.97;;;;;;;8.96;100.00;101288.09;5268790;28;20082;-76
2023/12/30 06:41:08;;;;;;;23.50;3.90;;;;;;;8.94;100.00;101290.09;5265152;28;20031;-76
2023/12/30 06:43:39;;;;;;;32.55;4.20;;;;;;;9.01;100.00;101289.34;5272335;28;20366;-76
2023/12/30 06:46:09;;;;;;;27.48;5.05;;;;;;;8.99;100.00;101291.31;5269165;28;20035;-76
2023/12/30 06:48:40;;;;;;;25.15;4.07;;;;;;;8.92;100.00;101298.22;5267286;28;20106;-76
2023/12/30 06:51:10;;;;;;;26.52;3.90;;;;;;;8.97;100.00;101300.47;5270601;28;20032;-76
2023/12/30 06:53:41;;;;;;;27.88;4.20;;;;;;;8.94;100.00;101298.09;5275138;27;20055;-76
2023/12/30 06:56:12;;;;;;;32.10;4.63;;;;;;;8.94;100.00;101298.94;5267730;28;20024;-76
2023/12/30 06:58:45;;;;;;;23.08;4.50;;;;;;;8.90;100.00;101305.56;5265299;28;20034;-76
2023/12/30 07:01:18;;;;;;;36.65;4.63;;;;;;;8.97;100.00;101292.44;5264755;28;20035;-76
2023/12/30 07:03:49;;;;;;;26.35;5.13;;;;;;;8.88;100.00;101299.50;5277614;28;20026;-76
2023/12/30 07:06:19;;;;;;;23.63;4.93;;;;;;;8.88;100.00;101299.50;5277647;28;20027;-76
2023/12/30 07:08:50;;;;;;;29.92;5.25;;;;;;;8.89;100.00;101292.34;5270717;28;20053;-76
2023/12/30 07:11:20;;;;;;;23.33;4.20;;;;;;;8.82;100.00;101292.91;5279389;28;20106;-76
2023/12/30 07:13:51;;;;;;;29.23;4.82;;;;;;;8.89;100.00;101289.66;5270064;28;20762;-76
2023/12/30 07:16:22;;;;;;;34.63;4.82;;;;;;;8.91;100.00;101288.53;5274896;28;20090;-76
2023/12/30 07:18:53;;;;;;;17.38;4.63;;;;;;;8.93;100.00;101299.06;5271318;28;20042;-76
2023/12/30 07:21:23;;;;;;;26.55;4.45;;;;;;;8.93;100.00;101299.91;5270589;28;20031;-76
2023/12/30 07:23:54;;;;;;;15.70;3.63;;;;;;;8.86;100.00;101292.63;5274970;28;20020;-76
2023/12/30 07:26:24;;;;;;;26.70;4.25;;;;;;;8.77;100.00;101291.66;5272155;28;20366;-76
2023/12/30 07:28:55;;;;;;;24.77;4.63;;;;;;;8.76;100.00;101298.84;5272257;28;20028;-76
2023/12/30 07:31:25;;;;;;;25.45;4.50;;;;;;;8.75;100.00;101307.84;5274057;28;20023;-76
2023/12/30 07:33:57;;;;;;;17.98;4.20;;;;;;;8.75;100.00;101310.53;5275984;28;20032;-76
2023/12/30 07:36:27;;;;;;;28.70;5.30;;;;;;;8.76;100.00;101301.50;5272531;28;20516;-76
2023/12/30 07:38:58;;;;;;;33.03;4.50;;;;;;;8.65;100.00;101309.69;5279372;28;20023;-76
2023/12/30 07:41:28;;;;;;;22.17;4.40;;;;;;;8.69;100.00;101319.13;5275113;28;20031;-76
2023/12/30 07:43:59;;;;;;;30.40;4.53;;;;;;;8.63;100.00;101321.50;5275525;28;20114;-76
2023/12/30 07:46:29;;;;;;;20.80;3.70;;;;;;;8.55;100.00;101323.06;5273526;28;20027;-75
2023/12/30 07:49:00;;;;;;;29.05;6.35;;;;;;;8.57;100.00;101325.59;5272491;28;20044;-76
2023/12/30 07:51:30;;;;;;;26.63;5.40;;;;;;;8.62;100.00;101317.16;5272171;28;20443;-76
2023/12/30 07:54:01;;;;;;;28.83;5.65;;;;;;;8.64;100.00;101325.91;5271880;28;20043;-77
2023/12/30 07:56:31;;;;;;;38.03;6.60;;;;;;;8.61;100.00;101324.31;5273769;28;20500;-77
2023/12/30 07:59:02;;;;;;;31.83;6.20;;;;;;;8.61;100.00;101323.50;5272054;28;20293;-76
2023/12/30 08:01:32;;;;;;;27.67;5.63;;;;;;;8.68;100.00;101328.09;5273675;28;20024;-76
2023/12/30 08:04:03;;;;;;;29.23;5.40;;;;;;;8.67;100.00;101337.13;5274117;28;20028;-76
2023/12/30 08:06:33;;;;;;;26.27;6.55;;;;;;;8.72;100.00;101331.34;5272137;28;20100;-77
2023/12/30 08:09:04;;;;;;;21.20;5.65;;;;;;;8.79;100.00;101337.84;5273800;28;20035;-77
2023/12/30 08:11:35;;;;;;;28.00;5.88;;;;;;;8.74;100.00;101337.44;5271676;28;20027;-76
2023/12/30 08:14:05;;;;;;;25.02;4.88;;;;;;;8.81;100.00;101339.38;5265671;28;20461;-76
2023/12/30 08:16:36;;;;;;;33.78;6.47;;;;;;;8.77;100.00;101337.97;5242492;28;20107;-76
2023/12/30 08:19:06;;;;;;;19.60;5.38;;;;;;;8.76;100.00;101335.44;5271473;28;20165;-76
2023/12/30 08:21:37;;;;;;;34.60;6.68;;;;;;;8.80;100.00;101339.53;5270234;28;20026;-77
2023/12/30 08:24:09;;;;;;;33.53;6.30;;;;;;;8.83;100.00;101341.91;5274588;27;20032;-76
2023/12/30 08:26:40;;;;;;;31.20;7.10;;;;;;;8.87;100.00;101342.47;5271721;27;20021;-77
2023/12/30 08:29:13;;;;;;;31.80;6.18;;;;;;;8.84;100.00;101334.75;5271935;28;20157;-77
2023/12/30 08:31:45;;;;;;;26.30;6.28;;;;;;;8.88;100.00;101334.28;5269902;28;20712;-77
2023/12/30 08:34:15;;;;;;;29.80;5.88;;;;;;;8.95;100.00;101337.25;5275590;28;20028;-75
2023/12/30 08:36:46;;;;;;;43.97;7.15;;;;;;;8.89;100.00;101337.84;5270727;28;20123;-76
2023/12/30 08:39:16;;;;;;;22.45;5.97;;;;;;;8.91;100.00;101342.03;5269453;28;20031;-76
2023/12/30 08:41:47;;;;;;;33.20;6.55;;;;;;;8.92;100.00;101334.84;5270390;28;20032;-77
2023/12/30 08:44:17;;;;;;;27.85;6.00;;;;;;;9.01;100.00;101320.63;5273266;28;20039;-76
2023/12/30 08:46:48;;;;;;;22.75;5.68;;;;;;;9.08;100.00;101324.38;5267968;28;20046;-76
2023/12/30 08:49:18;;;;;;;34.03;6.13;;;;;;;9.09;100.00;101331.44;5270068;28;20034;-76
2023/12/30 08:51:49;;;;;;;26.73;5.40;;;;;;;9.18;100.00;101322.53;5265530;28;20482;-76
2023/12/30 08:54:19;;;;;;;20.25;5.10;;;;;;;9.18;100.00;101316.31;5268293;28;20545;-76
2023/12/30 08:56:53;;;;;;;20.00;4.43;;;;;;;9.26;100.00;101317.28;5247277;28;20044;-76
2023/12/30 08:59:24;;;;;;;22.88;5.53;;;;;;;9.22;100.00;101326.59;5274594;28;20131;-76
2023/12/30 09:01:55;;;;;;;27.73;4.88;;;;;;;9.34;100.00;101335.31;5268963;28;20047;-76
2023/12/30 09:04:25;;;;;;;31.67;5.70;;;;;;;9.48;100.00;101340.16;5274747;28;20038;-76
2023/12/30 09:06:56;;;;;;;27.23;5.85;;;;;;;9.62;100.00;101340.69;5268927;28;20027;-76
2023/12/30 09:09:26;;;;;;;21.55;4.65;;;;;;;9.71;100.00;101342.50;5264736;28;20038;-77
2023/12/30 09:11:57;;;;;;;26.50;5.07;;;;;;;9.84;100.00;101338.47;5265266;28;20077;-77
2023/12/30 09:14:27;;;;;;;25.40;5.00;;;;;;;9.79;100.00;101342.59;5266680;27;20106;-77
2023/12/30 09:16:58;;;;;;;32.60;5.57;;;;;;;9.86;100.00;101349.03;5254582;28;20024;-77
2023/12/30 09:19:28;;;;;;;24.20;5.15;;;;;;;9.97;100.00;101346.16;5277912;27;20031;-76
2023/12/30 09:21:59;;;;;;;29.88;5.50;;;;;;;9.94;100.00;101357.19;5270386;28;20050;-76
2023/12/30 09:24:29;;;;;;;31.10;6.47;;;;;;;9.92;100.00;101361.00;5271023;28;20084;-77
2023/12/30 09:27:00;;;;;;;18.48;4.20;;;;;;;9.95;100.00;101358.88;5251664;28;20389;-77
2023/12/30 09:29:30;;;;;;;23.90;4.95;;;;;;;10.06;100.00;101355.97;5272560;28;20031;-77
2023/12/30 09:32:01;;;;;;;24.83;4.75;;;;;;;10.15;100.00;101361.44;5272936;28;20042;-77
2023/12/30 09:34:32;;;;;;;18.27;4.45;;;;;;;10.27;100.00;101357.56;5250523;28;20024;-77
2023/12/30 09:37:02;;;;;;;25.60;4.95;;;;;;;10.45;100.00;101354.91;5273784;28;20146;-76
2023/12/30 09:39:33;;;;;;;29.73;5.03;;;;;;;10.63;100.00;101367.28;5252016;28;20031;-76
2023/12/30 09:42:04;;;;;;;28.20;4.57;;;;;;;10.59;100.00;101357.03;5269205;28;20393;-77
2023/12/30 09:44:35;;;;;;;28.15;5.03;;;;;;;10.49;100.00;101357.13;5251325;28;20035;-77
2023/12/30 09:47:10;;;;;;;22.85;4.35;;;;;;;10.53;100.00;101358.47;5277011;28;20023;-77
2023/12/30 09:49:41;;;;;;;26.20;4.47;;;;;;;10.55;100.00;101350.31;5267227;28;20034;-77
2023/12/30 09:52:11;;;;;;;27.05;5.47;;;;;;;10.51;100.00;101359.66;5269138;27;20669;-77
2023/12/30 09:54:42;;;;;;;24.25;4.57;;;;;;;10.48;100.00;101368.00;5267602;28;20062;-77
2023/12/30 09:57:14;;;;;;;23.17;4.13;;;;;;;10.53;100.00;101360.31;5267343;28;20017;-76
2023/12/30 09:59:47;;;;;;;20.67;4.28;;;;;;;10.76;100.00;101349.97;5249194;28;20146;-77
2023/12/30 10:02:18;;;;;;;18.25;4.57;;;;;;;10.49;100.00;101357.13;5271261;28;20110;-76
2023/12/30 10:04:49;;;;;;;23.58;4.75;;;;;;;10.52;100.00;101362.16;5271585;28;20100;-76
2023/12/30 10:07:21;;;;;;;23.65;4.70;;;;;;;10.51;100.00;101354.28;5272771;28;20070;-77
2023/12/30 10:09:51;;;;;;;20.83;4.40;;;;;;;10.38;100.00;101346.59;5265188;28;20097;-77
2023/12/30 10:12:23;;;;;;;16.27;4.05;;;;;;;10.53;100.00;101353.13;5270119;28;20011;-76
2023/12/30 10:14:53;;;;;;;25.27;4.35;;;;;;;10.46;100.00;101353.91;5267844;28;20031;-77
2023/12/30 10:17:25;;;;;;;22.25;4.35;;;;;;;10.59;100.00;101363.25;5274489;28;20080;-76
2023/12/30 10:19:56;;;;;;;23.92;4.32;;;;;;;10.73;100.00;101348.44;5264150;28;20460;-76
2023/12/30 10:22:27;;;;;;;27.15;8.38;;;;;;;10.88;100.00;101352.25;5266938;28;20034;-76
2023/12/30 10:24:58;;;;;;;15.00;4.50;;;;;;;10.79;100.00;101353.19;5270166;28;20028;-76
2023/12/30 10:27:28;;;;;;;19.48;4.18;;;;;;;10.84;100.00;101360.75;5269532;27;20115;-76
2023/12/30 10:29:59;;;;;;;21.15;4.30;;;;;;;10.67;100.00;101364.31;5263910;28;20025;-77
2023/12/30 10:32:29;;;;;;;24.35;4.20;;;;;;;10.61;100.00;101369.31;5271792;28;20152;-76
2023/12/30 10:35:00;;;;;;;23.40;4.53;;;;;;;10.58;100.00;101355.34;5267106;28;20030;-76
2023/12/30 10:37:30;;;;;;;14.82;3.70;;;;;;;10.48;100.00;101352.75;5276017;28;20027;-77
2023/12/30 10:40:06;;;;;;;27.38;4.63;;;;;;;10.31;100.00;101346.38;5271506;28;20410;-76
2023/12/30 10:42:37;;;;;;;;;;;;;;;10.38;100.00;101347.44;5275936;28;20035;-76
2023/12/30 10:45:08;;;;;;;17.90;3.53;;;;;;;10.46;100.00;101349.38;5271222;28;20019;-77
2023/12/30 10:47:40;;;;;;;15.93;3.50;;;;;;;10.29;100.00;101353.75;5276347;28;20675;-76
2023/12/30 10:50:13;;;;;;;18.50;3.10;;;;;;;10.41;100.00;101346.31;5274679;28;20115;-77
2023/12/30 10:52:49;;;;;;;21.30;3.42;;;;;;;10.59;100.00;101332.88;5273601;28;20561;-76
2023/12/30 10:55:23;;;;;;;18.25;3.38;;;;;;;10.81;100.00;101329.72;5269712;28;20024;-76
2023/12/30 10:58:11;;;;;;;14.63;3.45;;;;;;;11.06;100.00;101332.59;5266731;28;20113;-76
2023/12/30 11:00:42;;;;;;;16.73;3.38;;;;;;;11.31;100.00;101322.84;5270306;28;20080;-76
2023/12/30 11:03:13;;;;;;;13.27;3.53;;;;;;;11.18;100.00;101311.69;5273872;28;20073;-76
2023/12/30 11:05:54;;;;;;;22.55;3.33;;;;;;;11.29;100.00;101322.13;5249383;28;20470;-76
2023/12/30 11:08:25;;;;;;;16.17;3.58;;;;;;;11.29;100.00;101320.28;5276194;28;20419;-76
2023/12/30 11:11:03;;;;;;;26.48;3.67;;;;;;;11.31;100.00;101317.47;5269325;28;20028;-76
2023/12/30 11:13:36;;;;;;;12.52;3.13;;;;;;;11.23;100.00;101318.25;5271173;28;20036;-76
2023/12/30 11:16:15;;;;;;;20.50;3.63;;;;;;;11.47;100.00;101306.78;5272455;28;20016;-76
2023/12/30 11:18:49;;;;;;;25.00;3.75;;;;;;;11.51;100.00;101305.47;5270798;28;20035;-76
2023/12/30 11:21:42;;;;;;;13.13;3.20;;;;;;;11.55;100.00;101300.63;5276667;28;20023;-77
2023/12/30 11:24:18;;;;;;;19.95;3.35;;;;;;;11.40;100.00;101290.50;5271773;28;20673;-76
2023/12/30 11:26:52;;;;;;;13.57;3.28;;;;;;;11.34;100.00;101301.00;5266631;28;20099;-76
2023/12/30 11:29:25;;;;;;;19.70;4.05;;;;;;;11.55;100.00;101293.41;5274230;28;20058;-76
2023/12/30 11:31:58;;;;;;;17.55;3.28;;;;;;;11.71;100.00;101289.94;5268873;28;20643;-76
2023/12/30 11:34:29;;;;;;;17.33;3.45;;;;;;;11.53;100.00;101298.09;5270441;28;20043;-77